Time;durP1;ratioP1;P1;durP2;ratioP2;P2;SDS_P1;SDS_P2;PMS_P1;PMS_P2;Temp;Humidity;BMP_temperature;BMP_pressure;BME280_temperature;BME280_humidity;BME280_pressure;Samples;Min_cycle;Max_cycle;Signal;HPM_P1;HPM_P2
2023/02/17 00:01:13;;;;;;;2.47;1.92;;;;;;;6.11;44.30;96039.34;5053165;28;20196;-69
2023/02/17 00:03:40;;;;;;;1.13;1.13;;;;;;;6.00;44.70;96029.53;5051466;28;20279;-71
2023/02/17 00:06:10;;;;;;;11.23;2.03;;;;;;;6.16;44.57;96044.75;5050440;28;20189;-69
2023/02/17 00:08:37;;;;;;;0.60;0.57;;;;;;;5.82;45.51;96042.28;5050575;28;20193;-68
2023/02/17 00:11:04;;;;;;;5.00;4.47;;;;;;;6.16;44.36;96036.94;5050874;28;20189;-70
2023/02/17 00:13:32;;;;;;;0.43;0.43;;;;;;;6.03;45.03;96044.72;5052154;28;20203;-70
2023/02/17 00:15:59;;;;;;;0.75;0.75;;;;;;;6.08;44.97;96032.72;5051498;28;20303;-69
2023/02/17 00:18:26;;;;;;;1.35;1.15;;;;;;;6.30;43.98;96030.72;5052035;28;20235;-68
2023/02/17 00:20:52;;;;;;;2.17;1.00;;;;;;;6.50;43.74;96031.50;5051579;28;20205;-70
2023/02/17 00:23:19;;;;;;;3.72;2.42;;;;;;;6.54;42.95;96037.91;5051235;28;20644;-70
2023/02/17 00:25:46;;;;;;;4.07;2.15;;;;;;;6.04;43.91;96035.91;5050333;28;20193;-68
2023/02/17 00:28:13;;;;;;;1.23;1.23;;;;;;;5.96;44.54;96023.13;5051026;28;20190;-68
2023/02/17 00:30:40;;;;;;;0.95;0.95;;;;;;;6.14;44.22;96015.53;5049790;28;20200;-67
2023/02/17 00:33:07;;;;;;;0.52;0.52;;;;;;;6.18;43.96;96024.53;5051105;28;20193;-68
2023/02/17 00:35:38;;;;;;;0.35;0.35;;;;;;;6.21;43.78;96016.31;5048416;28;20255;-69
2023/02/17 00:38:06;;;;;;;11.77;1.80;;;;;;;6.11;44.05;96021.91;5050681;28;20215;-70
2023/02/17 00:40:33;;;;;;;0.43;0.43;;;;;;;5.76;44.56;96001.47;5049007;28;20188;-67
2023/02/17 00:43:01;;;;;;;1.30;1.20;;;;;;;5.88;44.94;96016.31;5049141;28;20210;-69
2023/02/17 00:45:27;;;;;;;0.47;0.47;;;;;;;6.14;44.24;96005.09;5050292;28;20655;-68
2023/02/17 00:47:54;;;;;;;0.38;0.38;;;;;;;6.08;44.06;96009.31;5049121;28;20578;-69
2023/02/17 00:50:21;;;;;;;5.25;1.30;;;;;;;6.41;43.15;96030.13;5048679;28;20188;-68
2023/02/17 00:52:48;;;;;;;1.38;1.20;;;;;;;6.43;43.08;96022.91;5050229;28;20196;-68
2023/02/17 00:55:15;;;;;;;1.63;1.50;;;;;;;6.36;43.37;96019.53;5048758;28;20706;-68
2023/02/17 00:57:41;;;;;;;1.38;1.27;;;;;;;6.16;43.44;96008.31;5049079;28;20977;-68
2023/02/17 01:00:09;;;;;;;0.73;0.73;;;;;;;6.40;43.52;96017.31;5050010;28;20211;-68
2023/02/17 01:02:35;;;;;;;2.58;1.80;;;;;;;6.37;43.19;96015.91;5050061;28;20204;-68
2023/02/17 01:05:02;;;;;;;7.78;4.38;;;;;;;6.10;43.29;96004.72;5050055;28;20192;-66
2023/02/17 01:07:29;;;;;;;4.70;3.85;;;;;;;6.09;44.00;96008.28;5050011;28;20204;-68
2023/02/17 01:09:56;;;;;;;4.43;3.65;;;;;;;6.09;43.64;95991.91;5048532;28;20224;-68
2023/02/17 01:12:23;;;;;;;5.60;3.45;;;;;;;5.92;44.42;96008.91;5049454;28;20235;-69
2023/02/17 01:14:50;;;;;;;28.92;5.03;;;;;;;5.79;44.14;96012.25;5047828;28;20216;-69
2023/02/17 01:17:17;;;;;;;1.67;1.58;;;;;;;5.01;46.04;96014.66;5049560;28;20197;-69
2023/02/17 01:19:44;;;;;;;1.75;1.08;;;;;;;4.94;46.06;96014.63;5050717;28;20322;-68
2023/02/17 01:22:10;;;;;;;1.70;1.48;;;;;;;4.81;46.31;95998.97;5049731;28;20188;-69
2023/02/17 01:24:39;;;;;;;2.35;1.95;;;;;;;4.96;46.60;96004.03;5051308;28;20200;-68
2023/02/17 01:27:05;;;;;;;2.03;0.82;;;;;;;4.94;46.39;95988.66;5049877;28;20196;-66
2023/02/17 01:29:32;;;;;;;2.50;1.33;;;;;;;4.98;46.78;95997.66;5048152;28;20192;-70
2023/02/17 01:31:59;;;;;;;0.88;0.88;;;;;;;5.31;46.37;95989.97;5049206;28;20203;-68
2023/02/17 01:34:27;;;;;;;3.20;1.35;;;;;;;5.76;45.45;96001.47;5062953;28;20200;-67
2023/02/17 01:36:53;;;;;;;3.08;2.78;;;;;;;4.77;47.41;96000.34;5047762;28;20594;-69
2023/02/17 01:39:20;;;;;;;0.68;0.55;;;;;;;5.39;45.97;95996.78;5047994;28;20275;-68
2023/02/17 01:41:47;;;;;;;1.60;1.38;;;;;;;5.44;45.51;95994.41;5047931;28;20269;-68
2023/02/17 01:44:23;;;;;;;0.82;0.82;;;;;;;5.06;44.96;95955.13;5050003;28;20219;-68
2023/02/17 01:46:53;;;;;;;16.95;6.60;;;;;;;5.26;45.03;96009.72;5052644;28;20578;-69
2023/02/17 01:49:29;;;;;;;3.33;2.90;;;;;;;5.40;45.05;96006.19;5039996;28;20206;-70
2023/02/17 01:52:06;;;;;;;7.18;6.43;;;;;;;5.18;44.68;96002.94;5050594;28;20254;-66
2023/02/17 01:54:46;;;;;;;3.53;3.22;;;;;;;5.13;44.57;95990.50;5049796;28;20275;-67
2023/02/17 01:57:19;;;;;;;10.05;6.65;;;;;;;5.39;44.21;96014.97;5047807;28;20200;-69
2023/02/17 01:59:47;;;;;;;2.88;2.53;;;;;;;5.17;43.98;96011.72;5048862;28;20192;-69
2023/02/17 02:02:15;;;;;;;3.97;3.67;;;;;;;5.35;43.63;96014.56;5047970;28;20670;-67
2023/02/17 02:04:45;;;;;;;19.02;8.05;;;;;;;5.25;44.13;96021.13;5047537;28;20220;-67
2023/02/17 02:07:17;;;;;;;1.75;1.65;;;;;;;5.18;43.98;96015.13;5048786;28;20295;-67
2023/02/17 02:09:53;;;;;;;8.40;4.85;;;;;;;5.25;44.04;96005.53;5059174;28;20196;-66
2023/02/17 02:12:25;;;;;;;8.32;4.95;;;;;;;5.05;44.47;96003.66;5059532;28;20196;-69
2023/02/17 02:14:56;;;;;;;2.50;2.40;;;;;;;4.71;44.80;95998.53;5050146;28;20211;-67
2023/02/17 02:17:31;;;;;;;2.90;2.65;;;;;;;4.00;46.67;96001.44;5049075;28;20205;-66
2023/02/17 02:20:18;;;;;;;0.85;0.85;;;;;;;4.28;46.34;96010.03;5048223;28;20222;-69
2023/02/17 02:23:11;;;;;;;7.45;4.20;;;;;;;4.73;45.14;96009.50;5071555;28;20661;-67
2023/02/17 02:25:38;;;;;;;3.75;2.67;;;;;;;4.84;45.38;96003.78;5048537;28;20189;-69
2023/02/17 02:28:24;;;;;;;6.85;3.35;;;;;;;4.94;45.39;95996.44;5048172;28;20639;-67
2023/02/17 02:31:02;;;;;;;2.40;2.25;;;;;;;4.60;45.70;96011.25;5052082;28;20633;-66
2023/02/17 02:34:01;;;;;;;3.17;2.88;;;;;;;4.18;46.88;96003.59;5053298;28;20224;-68
2023/02/17 02:36:32;;;;;;;1.40;1.30;;;;;;;4.24;47.17;96003.63;5059866;28;20227;-69
2023/02/17 02:39:06;;;;;;;1.10;1.00;;;;;;;4.44;46.57;95999.38;5053139;28;20611;-72
2023/02/17 02:41:38;;;;;;;2.00;1.63;;;;;;;4.12;47.59;95990.38;5052562;28;20637;-67
2023/02/17 02:44:07;;;;;;;3.60;2.60;;;;;;;4.03;47.99;96006.28;5053613;28;20627;-70
2023/02/17 02:46:34;;;;;;;2.80;2.60;;;;;;;4.55;46.86;95995.44;5052915;28;20197;-68
2023/02/17 02:49:03;;;;;;;1.77;1.67;;;;;;;4.80;45.80;95994.00;5051539;28;20269;-66
2023/02/17 02:51:59;;;;;;;10.93;4.28;;;;;;;4.96;45.25;95989.25;5050915;28;20192;-69
2023/02/17 02:54:48;;;;;;;7.03;5.50;;;;;;;5.13;45.09;96011.28;5064065;28;20279;-67
2023/02/17 02:57:51;;;;;;;3.55;1.05;;;;;;;4.62;46.35;96012.66;5052354;28;20224;-70
2023/02/17 03:00:31;;;;;;;7.93;5.00;;;;;;;4.79;46.07;96000.97;5052907;28;20308;-67
2023/02/17 03:03:20;;;;;;;5.82;1.92;;;;;;;4.61;46.72;96005.88;5055738;28;20204;-69
2023/02/17 03:05:56;;;;;;;3.00;1.50;;;;;;;4.94;46.00;96011.22;5050551;28;20208;-65
2023/02/17 03:08:35;;;;;;;7.38;5.18;;;;;;;4.98;45.68;96002.84;5052684;28;20606;-68
2023/02/17 03:11:03;;;;;;;1.10;1.10;;;;;;;5.24;45.11;96001.34;5057623;28;20192;-66
2023/02/17 03:13:38;;;;;;;4.00;3.10;;;;;;;5.22;45.32;95998.16;5054127;28;20232;-65
2023/02/17 03:16:08;;;;;;;6.03;3.80;;;;;;;5.35;44.99;95998.97;5050976;28;20556;-64
2023/02/17 03:18:35;;;;;;;1.33;1.27;;;;;;;5.51;44.45;95990.03;5050934;28;20232;-69
2023/02/17 03:21:24;;;;;;;3.30;2.70;;;;;;;5.56;44.34;96000.63;5050704;28;20197;-65
2023/02/17 03:23:51;;;;;;;5.82;3.05;;;;;;;5.25;45.06;96005.53;5050658;28;20203;-66
2023/02/17 03:26:18;;;;;;;5.60;5.07;;;;;;;5.29;44.90;96004.97;5050250;28;20243;-68
2023/02/17 03:28:45;;;;;;;3.78;2.15;;;;;;;5.16;44.78;95990.13;5049912;28;20205;-69
2023/02/17 03:31:12;;;;;;;4.32;2.20;;;;;;;5.18;45.14;96002.13;5051778;28;20218;-66
2023/02/17 03:33:39;;;;;;;2.45;2.13;;;;;;;4.89;45.38;96011.78;5065124;28;20241;-69
2023/02/17 03:36:06;;;;;;;0.32;0.32;;;;;;;4.44;46.91;96004.56;5051829;28;20222;-66
2023/02/17 03:38:33;;;;;;;1.65;1.55;;;;;;;4.86;46.29;96009.59;5053218;28;20220;-68
2023/02/17 03:41:00;;;;;;;2.60;2.40;;;;;;;4.61;46.82;96008.47;5050733;28;20277;-66
2023/02/17 03:43:27;;;;;;;1.95;1.85;;;;;;;4.77;46.45;96000.34;5052130;28;20733;-68
2023/02/17 03:45:54;;;;;;;0.75;0.75;;;;;;;4.39;47.24;95996.56;5051682;28;20255;-69
2023/02/17 03:48:21;;;;;;;1.00;0.93;;;;;;;4.61;46.94;95977.31;5054040;28;20563;-68
2023/02/17 03:50:48;;;;;;;2.28;2.10;;;;;;;4.93;45.57;95994.84;5052657;28;20650;-67
2023/02/17 03:53:15;;;;;;;1.98;1.88;;;;;;;4.92;45.92;95993.25;5051883;28;20212;-70
2023/02/17 03:55:41;;;;;;;0.82;0.82;;;;;;;5.14;45.23;95981.75;5050866;28;20224;-68
2023/02/17 03:58:08;;;;;;;4.95;2.05;;;;;;;5.32;45.00;95991.56;5051823;28;20228;-66
2023/02/17 04:00:35;;;;;;;7.10;5.30;;;;;;;5.34;44.95;95993.97;5051478;28;20192;-67
2023/02/17 04:03:02;;;;;;;0.77;0.77;;;;;;;5.09;45.37;95999.69;5051396;28;20188;-67
2023/02/17 04:05:29;;;;;;;2.60;2.40;;;;;;;4.87;45.26;95985.22;5051161;28;20258;-67
2023/02/17 04:07:56;;;;;;;5.13;2.20;;;;;;;4.81;45.23;96001.59;5050533;28;20201;-65
2023/02/17 04:10:22;;;;;;;1.25;1.20;;;;;;;4.71;45.31;95995.13;5051388;28;20841;-71
2023/02/17 04:12:49;;;;;;;1.60;1.35;;;;;;;5.06;45.26;96009.66;5050271;28;20294;-69
2023/02/17 04:15:16;;;;;;;2.28;0.57;;;;;;;4.66;45.92;95997.50;5051259;28;20250;-66
2023/02/17 04:17:43;;;;;;;2.28;2.08;;;;;;;4.45;46.36;95990.59;5051241;28;20195;-68
2023/02/17 04:20:11;;;;;;;1.65;1.52;;;;;;;4.51;46.62;96000.19;5051445;28;20422;-68
2023/02/17 04:22:38;;;;;;;0.85;0.85;;;;;;;4.69;46.37;95992.72;5051282;28;20223;-70
2023/02/17 04:25:05;;;;;;;0.98;0.88;;;;;;;4.89;45.72;96001.41;5050986;28;20193;-69
2023/02/17 04:27:32;;;;;;;0.00;0.00;;;;;;;4.79;45.85;96000.97;5051060;28;20573;-67
2023/02/17 04:29:58;;;;;;;0.65;0.60;;;;;;;4.76;45.90;96003.16;5050249;28;20189;-71
2023/02/17 04:32:25;;;;;;;2.22;2.03;;;;;;;4.35;46.83;95995.31;5049880;28;20681;-69
2023/02/17 04:34:52;;;;;;;1.65;1.55;;;;;;;4.57;46.92;95999.44;5050975;28;20207;-67
2023/02/17 04:37:19;;;;;;;0.20;0.20;;;;;;;4.56;46.76;96003.03;5049562;28;20748;-68
2023/02/17 04:39:46;;;;;;;0.75;0.40;;;;;;;4.98;46.10;95987.25;5059899;28;20658;-68
2023/02/17 04:42:13;;;;;;;3.75;3.45;;;;;;;4.65;46.57;96007.06;5053749;28;20271;-68
2023/02/17 04:44:40;;;;;;;1.48;1.38;;;;;;;4.99;46.24;95998.44;5049200;28;20227;-67
2023/02/17 04:47:06;;;;;;;0.73;0.73;;;;;;;5.28;45.27;95984.34;5050182;28;20661;-67
2023/02/17 04:49:33;;;;;;;3.70;1.48;;;;;;;5.58;44.76;95993.44;5048590;28;20204;-68
2023/02/17 04:52:00;;;;;;;2.55;2.25;;;;;;;4.67;46.54;95988.72;5049891;28;20223;-65
2023/02/17 04:54:27;;;;;;;0.10;0.10;;;;;;;4.72;46.89;95981.97;5050889;28;20205;-70
2023/02/17 04:56:53;;;;;;;0.00;0.00;;;;;;;5.16;46.14;95981.53;5050221;28;20258;-66
2023/02/17 04:59:20;;;;;;;1.00;1.00;;;;;;;5.51;45.51;95977.03;5048939;28;20231;-66
2023/02/17 05:01:50;;;;;;;0.75;0.68;;;;;;;5.45;44.74;95998.59;5048919;28;20197;-69
2023/02/17 05:04:17;;;;;;;1.88;1.45;;;;;;;5.54;44.96;95998.22;5048961;28;20279;-68
2023/02/17 05:06:43;;;;;;;1.13;1.10;;;;;;;5.30;44.97;96001.38;5049479;28;20233;-66
2023/02/17 05:09:10;;;;;;;0.85;0.85;;;;;;;5.18;45.28;96006.31;5050622;28;20204;-69
2023/02/17 05:11:37;;;;;;;0.88;0.88;;;;;;;5.18;44.51;95995.91;5050278;28;20213;-66
2023/02/17 05:14:04;;;;;;;0.90;0.90;;;;;;;5.13;45.05;96032.09;5064749;28;20279;-67
2023/02/17 05:16:31;;;;;;;0.75;0.75;;;;;;;5.02;44.69;96024.84;5058443;28;20682;-68
2023/02/17 05:18:57;;;;;;;0.43;0.43;;;;;;;4.81;45.41;96024.16;5063812;28;20227;-66
2023/02/17 05:21:24;;;;;;;0.30;0.30;;;;;;;5.26;44.82;96030.50;5070092;28;20207;-67
2023/02/17 05:23:52;;;;;;;3.10;1.98;;;;;;;5.12;44.98;96024.50;5084160;28;20200;-64
2023/02/17 05:26:19;;;;;;;1.75;1.65;;;;;;;5.39;44.36;96030.56;5065415;28;20204;-70
2023/02/17 05:28:46;;;;;;;2.10;1.95;;;;;;;5.47;44.28;96033.00;5056110;28;20200;-67
2023/02/17 05:31:13;;;;;;;0.85;0.85;;;;;;;5.25;44.86;96034.94;5049089;28;20628;-68
2023/02/17 05:33:40;;;;;;;1.80;1.70;;;;;;;5.23;45.03;96030.91;5049499;28;20315;-69
2023/02/17 05:36:09;;;;;;;0.38;0.38;;;;;;;5.74;44.65;96037.25;5048635;28;20223;-72
2023/02/17 05:38:37;;;;;;;0.30;0.30;;;;;;;5.65;44.39;96038.44;5052160;28;20220;-65
2023/02/17 05:41:04;;;;;;;1.95;1.17;;;;;;;5.00;46.18;96047.59;5049633;28;20215;-69
2023/02/17 05:43:31;;;;;;;0.80;0.80;;;;;;;4.70;46.83;96061.84;5049022;28;20691;-65
2023/02/17 05:46:02;;;;;;;0.30;0.30;;;;;;;5.52;45.34;96056.59;5048579;28;20188;-63
2023/02/17 05:48:30;;;;;;;4.00;1.38;;;;;;;5.72;44.98;96057.47;5048680;28;20200;-65
2023/02/17 05:50:57;;;;;;;1.38;1.27;;;;;;;5.41;45.05;96063.19;5049179;28;20534;-64
2023/02/17 05:53:24;;;;;;;1.88;1.77;;;;;;;5.16;45.95;96056.88;5049809;28;20585;-67
2023/02/17 05:55:51;;;;;;;5.10;3.65;;;;;;;5.52;46.56;96061.81;5054616;28;20204;-69
2023/02/17 05:58:18;;;;;;;1.10;0.90;;;;;;;5.41;46.69;96049.38;5056351;28;20616;-68
2023/02/17 06:00:45;;;;;;;0.85;0.82;;;;;;;5.34;45.60;96038.16;5052160;28;20200;-68
2023/02/17 06:03:13;;;;;;;0.93;0.93;;;;;;;5.24;46.46;96058.53;5049137;28;20284;-69
2023/02/17 06:05:40;;;;;;;0.73;0.73;;;;;;;5.89;45.43;96053.53;5051770;28;20295;-69
2023/02/17 06:08:07;;;;;;;2.80;2.60;;;;;;;6.13;46.80;96050.38;5052407;28;20682;-69
2023/02/17 06:10:33;;;;;;;3.17;2.17;;;;;;;6.34;45.23;96057.97;5052126;28;20184;-68
2023/02/17 06:13:00;;;;;;;3.47;2.08;;;;;;;6.44;44.44;96058.34;5052580;28;20196;-69
2023/02/17 06:15:29;;;;;;;2.13;1.67;;;;;;;6.19;44.12;96044.34;5055052;28;20708;-68
2023/02/17 06:17:55;;;;;;;0.43;0.43;;;;;;;6.37;44.75;96073.16;5059085;28;20228;-69
2023/02/17 06:20:22;;;;;;;1.05;1.05;;;;;;;6.40;44.63;96067.59;5055150;28;20204;-69
2023/02/17 06:22:49;;;;;;;1.20;0.95;;;;;;;6.45;44.54;96065.16;5053524;28;20258;-71
2023/02/17 06:25:16;;;;;;;0.82;0.82;;;;;;;6.44;44.32;96058.34;5053103;28;20291;-67
2023/02/17 06:27:43;;;;;;;2.42;1.95;;;;;;;5.90;44.80;96055.13;5053889;28;20204;-70
2023/02/17 06:30:10;;;;;;;2.42;2.22;;;;;;;6.41;44.49;96065.75;5059401;28;20508;-68
2023/02/17 06:32:37;;;;;;;1.80;1.70;;;;;;;6.44;44.24;96066.16;5062283;28;20635;-68
2023/02/17 06:35:04;;;;;;;1.55;1.45;;;;;;;6.67;43.85;96063.94;5060621;28;20236;-68
2023/02/17 06:37:31;;;;;;;4.05;3.40;;;;;;;6.36;46.92;96071.59;5054317;28;20220;-68
2023/02/17 06:39:58;;;;;;;2.33;1.50;;;;;;;6.65;44.67;96073.78;5052649;28;20212;-70
2023/02/17 06:42:25;;;;;;;2.00;1.88;;;;;;;7.12;44.15;96073.47;5051801;28;20203;-69
2023/02/17 06:44:52;;;;;;;0.60;0.60;;;;;;;7.26;43.83;96076.03;5050532;28;20266;-68
2023/02/17 06:47:19;;;;;;;4.25;3.85;;;;;;;7.40;43.70;96080.19;5049664;28;20204;-69
2023/02/17 06:49:46;;;;;;;16.58;2.80;;;;;;;7.51;43.25;96066.50;5049256;28;20204;-68
2023/02/17 06:52:13;;;;;;;1.45;1.35;;;;;;;7.40;43.67;96074.97;5049671;28;20219;-66
2023/02/17 06:54:39;;;;;;;1.17;1.13;;;;;;;7.54;42.85;96061.69;5050374;28;20192;-70
2023/02/17 06:57:06;;;;;;;0.98;0.98;;;;;;;7.21;43.71;96073.25;5049933;28;20212;-68
2023/02/17 06:59:33;;;;;;;0.80;0.80;;;;;;;7.37;43.13;96080.63;5066514;28;20200;-67
2023/02/17 07:02:00;;;;;;;0.80;0.80;;;;;;;7.49;42.59;96081.56;5052801;28;20765;-67
2023/02/17 07:04:28;;;;;;;2.08;0.90;;;;;;;7.74;43.13;96087.66;5053056;28;20192;-70
2023/02/17 07:06:55;;;;;;;3.05;0.88;;;;;;;7.63;42.94;96085.72;5051524;28;20574;-68
2023/02/17 07:09:22;;;;;;;1.05;1.00;;;;;;;7.83;42.70;96075.97;5052114;28;20620;-68
2023/02/17 07:11:50;;;;;;;0.63;0.63;;;;;;;8.09;41.84;96086.25;5052060;28;20205;-69
2023/02/17 07:14:16;;;;;;;0.70;0.70;;;;;;;8.07;42.38;96085.66;5051965;28;20204;-69
2023/02/17 07:16:43;;;;;;;2.75;2.55;;;;;;;8.07;41.60;96085.66;5051527;28;20231;-67
2023/02/17 07:19:10;;;;;;;3.38;2.50;;;;;;;8.14;41.88;96086.41;5052071;28;20252;-68
2023/02/17 07:21:37;;;;;;;7.82;1.90;;;;;;;8.08;42.26;96095.13;5051699;28;20219;-68
2023/02/17 07:24:04;;;;;;;2.38;2.17;;;;;;;8.35;42.18;96086.13;5051940;28;20350;-70
2023/02/17 07:26:34;;;;;;;1.52;0.88;;;;;;;8.26;41.55;96092.63;5051274;28;20189;-68
2023/02/17 07:29:02;;;;;;;2.60;2.08;;;;;;;8.42;41.14;96089.47;5052034;28;20663;-70
2023/02/17 07:31:29;;;;;;;3.80;1.95;;;;;;;8.40;42.32;96095.91;5051383;28;20585;-69
2023/02/17 07:33:56;;;;;;;0.63;0.63;;;;;;;8.45;42.29;96086.44;5051705;28;20721;-70
2023/02/17 07:36:23;;;;;;;2.53;1.75;;;;;;;8.46;42.75;96095.88;5051407;28;20216;-69
2023/02/17 07:38:50;;;;;;;1.95;1.70;;;;;;;8.59;43.67;96087.94;5052662;28;20201;-69
2023/02/17 07:41:19;;;;;;;2.10;1.48;;;;;;;8.87;42.00;96096.13;5051941;28;20665;-68
2023/02/17 07:43:47;;;;;;;1.58;1.48;;;;;;;9.02;43.27;96098.41;5051236;28;20216;-69
2023/02/17 07:46:15;;;;;;;2.78;2.58;;;;;;;9.40;43.26;96088.53;5049851;28;20654;-69
2023/02/17 07:48:42;;;;;;;3.95;3.63;;;;;;;9.51;41.99;96084.38;5051416;28;20196;-69
2023/02/17 07:51:12;;;;;;;3.15;2.65;;;;;;;9.85;41.45;96089.00;5058578;28;20700;-72
2023/02/17 07:53:38;;;;;;;4.82;2.80;;;;;;;9.97;40.77;96084.59;5052615;28;20232;-74
2023/02/17 07:56:09;;;;;;;1.13;1.13;;;;;;;10.00;39.19;96071.06;5050648;28;20212;-70
2023/02/17 07:58:38;;;;;;;5.75;1.92;;;;;;;10.28;39.10;96079.16;5050784;28;20575;-68
2023/02/17 08:01:22;;;;;;;7.82;2.35;;;;;;;10.12;38.86;96074.56;5050801;28;20231;-68
2023/02/17 08:03:50;;;;;;;2.95;2.33;;;;;;;10.30;38.94;96066.63;5050996;28;20199;-70
2023/02/17 08:06:22;;;;;;;2.72;2.53;;;;;;;10.66;38.18;96084.78;5050625;28;20808;-69
2023/02/17 08:14:25;;;;;;;2.92;2.38;;;;;;;10.60;38.36;96072.59;5050284;28;20439;-72
2023/02/17 08:16:52;;;;;;;3.00;2.17;;;;;;;10.87;37.49;96079.00;5050601;28;20232;-71
2023/02/17 08:19:20;;;;;;;2.90;1.37;;;;;;;10.78;37.20;96075.13;5050429;28;20478;-70
2023/02/17 08:21:47;;;;;;;0.90;0.47;;;;;;;10.88;38.68;96075.34;5050990;28;20953;-71
2023/02/17 08:24:20;;;;;;;1.40;1.27;;;;;;;11.06;38.19;96082.28;5050671;28;20504;-71
2023/02/17 08:26:48;;;;;;;3.23;2.93;;;;;;;11.36;38.49;96066.41;5050850;28;20478;-71
2023/02/17 08:29:16;;;;;;;7.23;3.43;;;;;;;11.52;37.46;96070.94;5049435;28;20835;-71
2023/02/17 08:31:43;;;;;;;2.73;2.53;;;;;;;11.62;36.64;96050.13;5050370;28;20451;-73
2023/02/17 08:34:12;;;;;;;3.30;2.53;;;;;;;12.01;36.56;96050.13;5050108;28;20459;-73
2023/02/17 08:36:39;;;;;;;3.27;2.73;;;;;;;12.36;35.42;96067.53;5050154;28;20439;-71
2023/02/17 08:39:10;;;;;;;0.57;0.57;;;;;;;12.29;35.08;96066.88;5050633;28;21017;-71
2023/02/17 08:41:38;;;;;;;3.50;2.63;;;;;;;12.38;34.55;96039.97;5049970;28;20483;-70
2023/02/17 08:44:17;;;;;;;5.43;3.50;;;;;;;13.03;34.93;96064.66;5052319;28;20454;-67
2023/02/17 08:46:47;;;;;;;2.13;2.00;;;;;;;12.92;34.57;96054.19;5059057;28;20450;-68
2023/02/17 08:49:15;;;;;;;1.27;1.20;;;;;;;13.10;33.93;96054.75;5052837;28;20435;-68
2023/02/17 08:51:42;;;;;;;6.50;3.70;;;;;;;13.43;34.15;96056.50;5056507;28;20472;-70
2023/02/17 08:54:11;;;;;;;1.63;1.53;;;;;;;13.30;33.41;96048.19;5052887;28;20443;-69
2023/02/17 08:56:39;;;;;;;5.10;3.93;;;;;;;13.37;33.76;96048.81;5050042;28;20447;-68
2023/02/17 08:59:07;;;;;;;1.30;1.20;;;;;;;13.25;33.75;96040.25;5051374;28;20451;-71
2023/02/17 09:01:35;;;;;;;2.43;2.23;;;;;;;13.59;33.31;96053.03;5050410;28;20439;-70
2023/02/17 09:04:04;;;;;;;6.10;3.60;;;;;;;13.72;33.11;96052.63;5050607;28;20471;-70
2023/02/17 09:06:37;;;;;;;3.77;2.63;;;;;;;14.06;33.29;96048.00;5049957;28;20500;-69
2023/02/17 09:09:05;;;;;;;4.27;3.40;;;;;;;14.02;32.33;96044.28;5050068;28;20474;-71
2023/02/17 09:11:32;;;;;;;2.43;1.93;;;;;;;14.34;32.20;96018.78;5050003;28;20479;-73
2023/02/17 09:13:59;;;;;;;1.97;1.80;;;;;;;14.55;31.83;96036.34;5049542;28;21008;-68
2023/02/17 09:16:26;;;;;;;4.33;2.20;;;;;;;14.41;32.37;96029.91;5049900;28;20502;-71
2023/02/17 09:18:54;;;;;;;3.77;2.40;;;;;;;14.42;31.72;96002.47;5049480;28;20498;-71
2023/02/17 09:21:21;;;;;;;3.27;2.97;;;;;;;14.72;31.62;96031.75;5049510;28;20447;-72
2023/02/17 09:23:49;;;;;;;2.50;2.27;;;;;;;15.09;30.88;96027.22;5049613;28;21223;-71
2023/02/17 09:26:17;;;;;;;7.00;5.00;;;;;;;15.35;31.55;96035.25;5049432;28;20439;-71
2023/02/17 09:28:45;;;;;;;3.87;2.20;;;;;;;15.59;30.48;96031.16;5049719;28;20440;-72
2023/02/17 09:31:15;;;;;;;0.50;0.50;;;;;;;15.78;30.78;96030.44;5049316;28;20447;-69
2023/02/17 09:33:43;;;;;;;2.23;1.77;;;;;;;15.57;30.32;96017.41;5049466;28;20447;-71
2023/02/17 09:36:13;;;;;;;4.80;3.20;;;;;;;15.81;29.42;96015.91;5048873;28;20439;-68
2023/02/17 09:38:40;;;;;;;14.93;2.80;;;;;;;16.05;29.34;96009.91;5048438;28;20477;-71
2023/02/17 09:41:16;;;;;;;3.27;2.63;;;;;;;16.27;29.23;96022.09;5048508;28;20447;-69
2023/02/17 09:43:44;;;;;;;1.73;1.63;;;;;;;16.46;28.81;96017.88;5048880;28;20500;-72
2023/02/17 09:46:28;;;;;;;2.33;2.13;;;;;;;16.91;28.90;96017.88;5049096;28;20817;-72
2023/02/17 09:49:11;;;;;;;7.47;2.90;;;;;;;16.85;28.52;96003.84;5049104;28;21008;-70
2023/02/17 09:51:44;;;;;;;2.27;2.10;;;;;;;17.08;27.64;96013.84;5048800;28;21055;-70
2023/02/17 09:54:36;;;;;;;0.83;0.83;;;;;;;17.39;25.00;96008.47;5049672;28;20816;-70
2023/02/17 09:57:07;;;;;;;1.50;1.40;;;;;;;17.42;22.82;95992.03;5053612;28;20505;-69
2023/02/17 09:59:54;;;;;;;0.13;0.13;;;;;;;17.22;23.07;95998.19;5056193;28;20979;-70
2023/02/17 10:02:40;;;;;;;1.13;0.50;;;;;;;17.29;23.19;96003.19;5049550;28;20496;-71
2023/02/17 10:05:13;;;;;;;0.10;0.10;;;;;;;17.49;22.51;95989.91;5050825;28;20458;-69
2023/02/17 10:08:00;;;;;;;0.70;0.70;;;;;;;17.54;22.77;95989.88;5051542;28;20478;-71
2023/02/17 10:10:34;;;;;;;0.10;0.10;;;;;;;17.97;22.89;95986.47;5052381;28;20438;-69
2023/02/17 10:13:04;;;;;;;0.77;0.40;;;;;;;17.82;22.67;95987.38;5062422;28;20438;-70
2023/02/17 10:15:39;;;;;;;0.77;0.77;;;;;;;17.59;22.04;95981.94;5050643;28;20451;-71
2023/02/17 10:18:13;;;;;;;4.20;1.73;;;;;;;16.89;22.14;95991.66;5049262;28;21050;-71
2023/02/17 10:20:57;;;;;;;1.83;0.60;;;;;;;16.39;23.44;95978.44;5049378;28;20443;-72
2023/02/17 10:23:26;;;;;;;1.70;1.20;;;;;;;17.42;22.90;95970.84;5049215;28;20488;-69
2023/02/17 10:25:53;;;;;;;0.97;0.93;;;;;;;17.20;22.47;95979.94;5048891;28;20439;-72
2023/02/17 10:28:42;;;;;;;0.57;0.57;;;;;;;17.77;21.65;95965.41;5049467;28;20508;-71
2023/02/17 10:31:17;;;;;;;0.53;0.53;;;;;;;17.79;22.07;95957.97;5048298;28;20447;-72
2023/02/17 10:33:56;;;;;;;0.93;0.83;;;;;;;17.98;21.68;95953.56;5048504;28;20485;-71
2023/02/17 10:36:43;;;;;;;0.60;0.60;;;;;;;18.22;21.65;95957.13;5048303;28;20435;-73
2023/02/17 10:39:23;;;;;;;0.50;0.50;;;;;;;18.41;21.64;95942.13;5048456;28;20475;-69
2023/02/17 10:41:53;;;;;;;0.77;0.60;;;;;;;18.58;21.55;95942.50;5049627;28;20870;-70
2023/02/17 10:44:24;;;;;;;0.40;0.33;;;;;;;18.15;21.28;95943.38;5048521;28;20443;-70
2023/02/17 10:46:52;;;;;;;2.07;1.00;;;;;;;18.10;20.76;95936.25;5048261;28;20471;-69
2023/02/17 10:49:35;;;;;;;0.53;0.53;;;;;;;18.14;21.90;95947.09;5048927;28;20447;-74
2023/02/17 10:52:12;;;;;;;0.43;0.43;;;;;;;18.22;21.35;95933.25;5051752;28;20489;-70
2023/02/17 10:54:47;;;;;;;0.53;0.53;;;;;;;18.26;22.10;95928.97;5052559;28;20480;-74
2023/02/17 10:57:16;;;;;;;0.50;0.50;;;;;;;18.17;21.55;95936.72;5052018;28;20454;-70
2023/02/17 10:59:44;;;;;;;0.70;0.70;;;;;;;18.01;21.73;95923.88;5052363;28;20454;-73
2023/02/17 11:02:42;;;;;;;0.20;0.20;;;;;;;18.59;21.38;95930.84;5052002;28;20446;-72
2023/02/17 11:05:28;;;;;;;0.87;0.87;;;;;;;17.88;21.44;95925.25;5052719;28;20458;-70
2023/02/17 11:08:00;;;;;;;0.20;0.20;;;;;;;17.10;22.02;95926.97;5052465;28;20521;-69
2023/02/17 11:10:34;;;;;;;16.80;6.80;;;;;;;17.31;22.34;95932.19;5051974;28;20435;-73
2023/02/17 11:13:02;;;;;;;3.40;2.53;;;;;;;17.65;22.22;95901.28;5052430;28;20446;-69
2023/02/17 11:15:43;;;;;;;3.60;0.83;;;;;;;17.90;21.81;95925.00;5051364;28;20457;-70
2023/02/17 11:18:19;;;;;;;0.53;0.53;;;;;;;17.62;21.57;95923.84;5051619;28;20532;-70
2023/02/17 11:20:46;;;;;;;0.27;0.27;;;;;;;17.21;22.40;95930.38;5051355;28;20905;-69
2023/02/17 11:23:13;;;;;;;0.83;0.83;;;;;;;17.67;21.71;95915.06;5051756;28;20984;-73
2023/02/17 11:25:42;;;;;;;0.20;0.20;;;;;;;17.43;22.47;95922.06;5051274;28;20526;-69
2023/02/17 11:28:21;;;;;;;0.50;0.50;;;;;;;17.51;21.33;95918.88;5051740;28;21267;-77
2023/02/17 11:30:53;;;;;;;1.03;0.83;;;;;;;17.49;21.17;95913.06;5055438;28;21023;-73
2023/02/17 11:33:36;;;;;;;0.87;0.50;;;;;;;18.21;20.76;95899.81;5060860;28;20461;-70
2023/02/17 11:36:05;;;;;;;1.90;0.70;;;;;;;18.49;21.38;95906.22;5064756;28;20516;-68
2023/02/17 11:38:42;;;;;;;0.77;0.77;;;;;;;18.28;20.89;95905.63;5064211;28;20478;-70
2023/02/17 11:41:10;;;;;;;0.53;0.53;;;;;;;18.57;21.59;95898.47;5057839;28;20465;-70
2023/02/17 11:43:38;;;;;;;0.70;0.63;;;;;;;18.88;20.85;95881.13;5060531;28;20962;-70
2023/02/17 11:46:16;;;;;;;0.30;0.30;;;;;;;19.23;20.78;95900.38;5052957;28;20810;-72
2023/02/17 11:49:06;;;;;;;0.30;0.30;;;;;;;19.23;20.64;95884.44;5052319;28;20807;-73
2023/02/17 11:51:33;;;;;;;1.33;1.23;;;;;;;19.11;20.74;95882.19;5049991;28;20447;-70
2023/02/17 11:54:18;;;;;;;2.43;1.53;;;;;;;18.95;20.77;95894.88;5051443;28;20458;-75
2023/02/17 11:56:59;;;;;;;2.83;1.00;;;;;;;19.05;21.46;95888.63;5050689;28;20442;-70
2023/02/17 11:59:47;;;;;;;0.10;0.10;;;;;;;19.26;21.63;95878.53;5051174;28;21045;-69